Time;durP1;ratioP1;P1;durP2;ratioP2;P2;SDS_P1;SDS_P2;PMS_P1;PMS_P2;Temp;Humidity;BMP_temperature;BMP_pressure;BME280_temperature;BME280_humidity;BME280_pressure;Samples;Min_cycle;Max_cycle;Signal;HPM_P1;HPM_P2
2021/12/18 00:01:10;;;;;;;;;;;7.20;99.90;;;;;;5111288;28;20019;-66
2021/12/18 00:03:36;;;;;;;;;;;7.20;99.90;;;;;;5115497;28;19921;-66
2021/12/18 00:06:02;;;;;;;;;;;7.20;99.90;;;;;;5115071;28;19926;-67
2021/12/18 00:08:28;;;;;;;;;;;7.20;99.90;;;;;;5097816;28;19945;-66
2021/12/18 00:10:55;;;;;;;;;;;7.20;99.90;;;;;;5115599;28;19923;-67
2021/12/18 00:13:21;;;;;;;;;;;7.10;99.90;;;;;;5115737;28;19919;-65
2021/12/18 00:15:49;;;;;;;;;;;7.10;99.90;;;;;;5115333;28;19919;-67
2021/12/18 00:18:15;;;;;;;;;;;7.10;99.90;;;;;;5097660;28;19927;-65
2021/12/18 00:20:40;;;;;;;;;;;7.10;99.90;;;;;;5098495;28;19919;-67
2021/12/18 00:23:06;;;;;;;;;;;7.10;99.90;;;;;;5098026;28;19920;-69
2021/12/18 00:25:32;;;;;;;;;;;7.10;99.90;;;;;;5097798;28;19926;-66
2021/12/18 00:27:58;;;;;;;;;;;7.10;99.90;;;;;;5115152;28;19927;-67
2021/12/18 00:30:24;;;;;;;;;;;7.10;99.90;;;;;;5114537;28;19919;-66
2021/12/18 00:32:49;;;;;;;;;;;7.10;99.90;;;;;;5115159;28;19919;-67
2021/12/18 00:35:15;;;;;;;;;;;7.10;99.90;;;;;;5114415;28;20011;-66
2021/12/18 00:37:41;;;;;;;;;;;7.10;99.90;;;;;;5115982;28;19920;-66
2021/12/18 00:40:11;;;;;;;;;;;7.10;99.90;;;;;;5098051;28;19924;-66
2021/12/18 00:42:57;;;;;;;;;;;7.00;99.90;;;;;;5115186;28;20292;-65
2021/12/18 00:45:23;;;;;;;;;;;7.00;99.90;;;;;;5115647;28;19919;-66
2021/12/18 00:47:49;;;;;;;;;;;7.10;99.90;;;;;;5114870;28;20287;-67
2021/12/18 00:50:16;;;;;;;;;;;7.10;99.90;;;;;;5097549;28;19920;-66
2021/12/18 00:52:42;;;;;;;;;;;7.00;99.90;;;;;;5114935;28;19927;-66
2021/12/18 00:55:08;;;;;;;;;;;7.00;99.90;;;;;;5080833;28;19919;-66
2021/12/18 00:57:34;;;;;;;;;;;7.00;99.90;;;;;;5113972;28;19930;-65
2021/12/18 01:00:02;;;;;;;;;;;7.00;99.90;;;;;;5114336;28;20373;-67
2021/12/18 01:02:29;;;;;;;;;;;7.00;99.90;;;;;;5096776;28;19920;-67
2021/12/18 01:04:55;;;;;;;;;;;7.00;99.90;;;;;;5114302;28;19968;-66
2021/12/18 01:07:21;;;;;;;;;;;7.00;99.90;;;;;;5097013;28;19924;-65
2021/12/18 01:10:02;;;;;;;;;;;6.90;99.90;;;;;;5114073;28;20274;-66
2021/12/18 01:12:35;;;;;;;;;;;6.80;99.90;;;;;;5081186;28;19923;-66
2021/12/18 01:15:13;;;;;;;;;;;6.80;99.90;;;;;;5097873;28;19920;-67
2021/12/18 01:23:08;;;;;;;;;;;6.90;99.90;;;;;;5114202;28;19919;-66
2021/12/18 01:25:33;;;;;;;;;;;6.90;99.90;;;;;;5096878;28;19982;-65
2021/12/18 01:27:59;;;;;;;;;;;6.80;99.90;;;;;;5080195;28;19923;-66
2021/12/18 01:30:25;;;;;;;;;;;6.80;99.90;;;;;;5113844;28;19920;-67
2021/12/18 01:32:50;;;;;;;;;;;6.80;99.90;;;;;;5096815;28;20281;-66
2021/12/18 01:35:16;;;;;;;;;;;6.90;99.90;;;;;;5096455;28;20414;-70
2021/12/18 01:37:43;;;;;;;;;;;6.80;99.90;;;;;;5113738;28;19969;-65
2021/12/18 01:40:09;;;;;;;;;;;6.80;99.90;;;;;;5113996;28;19965;-66
2021/12/18 01:43:32;;;;;;;;;;;6.80;99.90;;;;;;5113186;28;19919;-65
2021/12/18 01:45:30;;;;;;;;;;;6.80;99.90;;;;;;5111132;28;19920;-66
2021/12/18 01:53:12;;;;;;;;;;;6.80;99.90;;;;;;5113644;28;19920;-66
2021/12/18 01:55:39;;;;;;;;;;;6.80;99.90;;;;;;5096221;28;19919;-66
2021/12/18 01:58:05;;;;;;;;;;;6.80;99.90;;;;;;5113304;28;19941;-66
2021/12/18 02:00:34;;;;;;;;;;;6.90;99.90;;;;;;5095687;28;19928;-65
2021/12/18 02:03:00;;;;;;;;;;;6.80;99.90;;;;;;5113472;28;19971;-66
2021/12/18 02:05:26;;;;;;;;;;;6.80;99.90;;;;;;5113078;28;20084;-66
2021/12/18 02:07:52;;;;;;;;;;;6.80;99.90;;;;;;5096134;28;19927;-67
2021/12/18 02:10:20;;;;;;;;;;;6.80;99.90;;;;;;5096158;28;20292;-66
2021/12/18 02:12:56;;;;;;;;;;;6.80;99.90;;;;;;5113117;28;19919;-67
2021/12/18 02:20:55;;;;;;;;;;;6.80;99.90;;;;;;5113262;28;20018;-66
2021/12/18 02:23:20;;;;;;;;;;;6.80;99.90;;;;;;5112881;28;20003;-68
2021/12/18 02:25:46;;;;;;;;;;;6.80;99.90;;;;;;5112142;28;19928;-66
2021/12/18 02:28:17;;;;;;;;;;;6.80;99.90;;;;;;5112977;28;19920;-66
2021/12/18 02:30:43;;;;;;;;;;;6.80;99.90;;;;;;5112260;28;20474;-66
2021/12/18 02:33:09;;;;;;;;;;;6.80;99.90;;;;;;5078711;28;20049;-66
2021/12/18 02:35:41;;;;;;;;;;;6.80;99.90;;;;;;5094506;28;20007;-66
2021/12/18 02:38:11;;;;;;;;;;;6.90;99.90;;;;;;5095400;28;20043;-66
2021/12/18 02:40:52;;;;;;;;;;;6.80;99.90;;;;;;5112370;28;19930;-65
2021/12/18 02:43:17;;;;;;;;;;;6.80;99.90;;;;;;5112806;28;19931;-69
2021/12/18 02:45:43;;;;;;;;;;;6.80;99.90;;;;;;5111747;28;20172;-67
2021/12/18 02:48:08;;;;;;;;;;;6.90;99.90;;;;;;5078633;28;19969;-66
2021/12/18 02:50:38;;;;;;;;;;;6.90;99.90;;;;;;5095120;28;19976;-65
2021/12/18 02:53:04;;;;;;;;;;;6.90;99.90;;;;;;5112073;28;19969;-66
2021/12/18 02:55:29;;;;;;;;;;;6.90;99.90;;;;;;5111919;28;20292;-67
2021/12/18 02:57:55;;;;;;;;;;;6.90;99.90;;;;;;5095161;28;19965;-66
2021/12/18 03:00:23;;;;;;;;;;;6.90;99.90;;;;;;5112223;28;20301;-66
2021/12/18 03:02:48;;;;;;;;;;;6.90;99.90;;;;;;5094824;28;20006;-66
2021/12/18 03:05:21;;;;;;;;;;;6.90;99.90;;;;;;5095072;28;20003;-67
2021/12/18 03:07:51;;;;;;;;;;;6.90;99.90;;;;;;5094732;28;19962;-67
2021/12/18 03:22:16;;;;;;;;;;;6.90;99.90;;;;;;5112106;28;19945;-66
2021/12/18 03:24:32;;;;;;;;;;;6.90;99.90;;;;;;5112014;28;19920;-66
2021/12/18 03:26:58;;;;;;;;;;;6.90;99.90;;;;;;5111390;28;20369;-66
2021/12/18 03:29:23;;;;;;;;;;;7.00;99.90;;;;;;5111586;28;19920;-66
2021/12/18 03:31:49;;;;;;;;;;;6.90;99.90;;;;;;5077630;28;20357;-67
2021/12/18 03:34:14;;;;;;;;;;;7.00;99.90;;;;;;5111582;28;19999;-66
2021/12/18 03:36:40;;;;;;;;;;;7.00;99.90;;;;;;5110774;28;19926;-67
2021/12/18 03:39:06;;;;;;;;;;;6.90;99.90;;;;;;5094734;28;19920;-67
2021/12/18 03:41:31;;;;;;;;;;;6.90;99.90;;;;;;5094614;28;20014;-69
2021/12/18 03:43:58;;;;;;;;;;;6.90;99.90;;;;;;5111508;28;19940;-67
2021/12/18 03:46:24;;;;;;;;;;;7.00;99.90;;;;;;5094531;28;19926;-68
2021/12/18 03:48:49;;;;;;;;;;;7.00;99.90;;;;;;5110787;28;19920;-66
2021/12/18 03:51:15;;;;;;;;;;;7.00;99.90;;;;;;5127957;28;19963;-66
2021/12/18 03:53:40;;;;;;;;;;;7.00;99.90;;;;;;5110872;28;19920;-67
2021/12/18 03:56:06;;;;;;;;;;;7.00;99.90;;;;;;5111029;28;19963;-65
2021/12/18 03:58:32;;;;;;;;;;;7.00;99.90;;;;;;5111240;28;19927;-66
2021/12/18 04:00:57;;;;;;;;;;;7.00;99.90;;;;;;5111212;28;20281;-66
2021/12/18 04:03:23;;;;;;;;;;;7.00;99.90;;;;;;5094603;28;20410;-68
2021/12/18 04:05:49;;;;;;;;;;;7.00;99.90;;;;;;5094126;28;20014;-67
2021/12/18 04:08:15;;;;;;;;;;;7.00;99.90;;;;;;5111265;28;20288;-66
2021/12/18 04:10:41;;;;;;;;;;;7.20;99.90;;;;;;5110849;28;19919;-68
2021/12/18 04:13:07;;;;;;;;;;;7.10;99.90;;;;;;5111354;28;19923;-68
2021/12/18 04:15:33;;;;;;;;;;;7.10;99.90;;;;;;5094050;28;20278;-66
2021/12/18 04:17:59;;;;;;;;;;;7.10;99.90;;;;;;5110896;28;19926;-66
2021/12/18 04:20:24;;;;;;;;;;;7.10;99.90;;;;;;5111429;28;19927;-67
2021/12/18 04:22:51;;;;;;;;;;;7.10;99.90;;;;;;5110828;28;20322;-67
2021/12/18 04:25:17;;;;;;;;;;;7.10;99.90;;;;;;5111368;28;20017;-66
2021/12/18 04:27:43;;;;;;;;;;;7.10;99.90;;;;;;5110866;28;20325;-67
2021/12/18 04:30:09;;;;;;;;;;;7.10;99.90;;;;;;5110958;28;20437;-67
2021/12/18 04:32:34;;;;;;;;;;;7.20;99.90;;;;;;5110873;28;19927;-68
2021/12/18 04:35:00;;;;;;;;;;;7.20;99.90;;;;;;5110816;28;20356;-67
2021/12/18 04:37:26;;;;;;;;;;;7.20;99.90;;;;;;5094188;28;19919;-67
2021/12/18 04:39:52;;;;;;;;;;;7.20;99.90;;;;;;5093597;28;19919;-67
2021/12/18 04:42:18;;;;;;;;;;;7.20;99.90;;;;;;5094350;28;19926;-66
2021/12/18 04:44:44;;;;;;;;;;;7.20;99.90;;;;;;5110678;28;19920;-66
2021/12/18 04:47:09;;;;;;;;;;;7.30;99.90;;;;;;5077981;28;20013;-67
2021/12/18 04:49:35;;;;;;;;;;;7.20;99.90;;;;;;5114298;28;20284;-66
2021/12/18 04:52:02;;;;;;;;;;;7.20;99.90;;;;;;5114058;28;19915;-67
2021/12/18 04:54:27;;;;;;;;;;;7.20;99.90;;;;;;5114475;28;19930;-66
2021/12/18 04:56:53;;;;;;;;;;;7.30;99.90;;;;;;5114066;28;20377;-66
2021/12/18 04:59:19;;;;;;;;;;;7.20;99.90;;;;;;5097385;28;20350;-66
2021/12/18 05:01:44;;;;;;;;;;;7.20;99.90;;;;;;5097287;28;19919;-66
2021/12/18 05:04:11;;;;;;;;;;;7.30;99.90;;;;;;5114652;28;19920;-67
2021/12/18 05:06:40;;;;;;;;;;;7.30;99.90;;;;;;5097671;28;19924;-66
2021/12/18 05:09:06;;;;;;;;;;;7.30;99.90;;;;;;5115177;28;19919;-66
2021/12/18 05:11:32;;;;;;;;;;;7.30;99.90;;;;;;5115521;28;19927;-66
2021/12/18 05:13:57;;;;;;;;;;;7.30;99.90;;;;;;5113747;28;19967;-66
2021/12/18 05:16:23;;;;;;;;;;;7.30;99.90;;;;;;5114354;28;19926;-67
2021/12/18 05:18:49;;;;;;;;;;;7.30;99.90;;;;;;5113926;28;19920;-66
2021/12/18 05:21:14;;;;;;;;;;;7.30;99.90;;;;;;5114233;28;20353;-67
2021/12/18 05:23:40;;;;;;;;;;;7.40;99.90;;;;;;5114899;28;19924;-67
2021/12/18 05:26:05;;;;;;;;;;;7.40;99.90;;;;;;5113481;28;19988;-67
2021/12/18 05:28:31;;;;;;;;;;;7.30;99.90;;;;;;5096818;28;19920;-67
2021/12/18 05:30:57;;;;;;;;;;;7.40;99.90;;;;;;5113656;28;19924;-66
2021/12/18 05:33:22;;;;;;;;;;;7.40;99.90;;;;;;5114051;28;19974;-66
2021/12/18 05:35:48;;;;;;;;;;;7.40;99.90;;;;;;5113637;28;19966;-66
2021/12/18 05:38:13;;;;;;;;;;;7.40;99.90;;;;;;5096966;28;19919;-66
2021/12/18 05:40:39;;;;;;;;;;;7.40;99.90;;;;;;5113707;28;20478;-66
2021/12/18 05:43:06;;;;;;;;;;;7.40;99.90;;;;;;5096319;28;20002;-67
2021/12/18 05:45:32;;;;;;;;;;;7.50;99.90;;;;;;5096797;28;19920;-66
2021/12/18 05:47:57;;;;;;;;;;;7.50;99.90;;;;;;5113004;28;19919;-67
2021/12/18 05:50:27;;;;;;;;;;;7.50;99.90;;;;;;5096264;28;20023;-68
2021/12/18 05:52:54;;;;;;;;;;;7.50;99.90;;;;;;5112822;28;19919;-67
2021/12/18 05:55:22;;;;;;;;;;;7.60;99.90;;;;;;5113731;28;19920;-67
2021/12/18 05:57:48;;;;;;;;;;;7.50;99.90;;;;;;5079372;28;19964;-69
2021/12/18 06:00:14;;;;;;;;;;;7.60;99.90;;;;;;5112708;28;19924;-66
2021/12/18 06:02:40;;;;;;;;;;;7.60;99.90;;;;;;5113418;28;20268;-66
2021/12/18 06:05:07;;;;;;;;;;;7.60;99.90;;;;;;5096245;28;19919;-66
2021/12/18 06:07:43;;;;;;;;;;;7.60;99.90;;;;;;5113248;28;19920;-66
2021/12/18 06:10:09;;;;;;;;;;;7.60;99.90;;;;;;5080118;28;19924;-66
2021/12/18 06:12:34;;;;;;;;;;;7.60;99.90;;;;;;5113066;28;20015;-67
2021/12/18 06:15:00;;;;;;;;;;;7.60;99.90;;;;;;5095314;28;19984;-66
2021/12/18 06:17:26;;;;;;;;;;;7.60;99.90;;;;;;5113213;28;19927;-67
2021/12/18 06:19:51;;;;;;;;;;;7.60;99.90;;;;;;5112756;28;19928;-70
2021/12/18 06:22:17;;;;;;;;;;;7.60;99.90;;;;;;5113143;28;19920;-66
2021/12/18 06:24:43;;;;;;;;;;;7.60;99.90;;;;;;5114048;28;19923;-67
2021/12/18 06:27:08;;;;;;;;;;;7.60;99.90;;;;;;5112710;28;20347;-67
2021/12/18 06:29:34;;;;;;;;;;;7.60;99.90;;;;;;5078774;28;19920;-67
2021/12/18 06:32:00;;;;;;;;;;;7.70;99.90;;;;;;5095567;28;19919;-67
2021/12/18 06:34:25;;;;;;;;;;;7.60;99.90;;;;;;5095970;28;19920;-67
2021/12/18 06:36:51;;;;;;;;;;;7.70;99.90;;;;;;5112980;28;19924;-68
2021/12/18 06:39:17;;;;;;;;;;;7.70;99.90;;;;;;5112027;28;20296;-67
2021/12/18 06:41:42;;;;;;;;;;;7.70;99.90;;;;;;5095427;28;19920;-67
2021/12/18 06:44:08;;;;;;;;;;;7.70;99.90;;;;;;5111643;28;20570;-65
2021/12/18 06:46:33;;;;;;;;;;;7.70;99.90;;;;;;5095389;28;19920;-67
2021/12/18 06:48:59;;;;;;;;;;;7.70;99.90;;;;;;5094796;28;20018;-67
2021/12/18 06:51:24;;;;;;;;;;;7.70;99.90;;;;;;5095612;28;19924;-66
2021/12/18 06:53:50;;;;;;;;;;;7.70;99.90;;;;;;5112505;28;19920;-67
2021/12/18 06:56:16;;;;;;;;;;;7.70;99.90;;;;;;5111780;28;19997;-67
2021/12/18 06:58:41;;;;;;;;;;;7.70;99.90;;;;;;5095248;28;20396;-66
2021/12/18 07:01:07;;;;;;;;;;;7.80;99.90;;;;;;5111814;28;20010;-67
2021/12/18 07:03:34;;;;;;;;;;;7.70;99.90;;;;;;5094934;28;19919;-66
2021/12/18 07:05:59;;;;;;;;;;;7.80;99.90;;;;;;5111682;28;19926;-67
2021/12/18 07:08:25;;;;;;;;;;;7.80;99.90;;;;;;5112149;28;19919;-66
2021/12/18 07:10:51;;;;;;;;;;;7.80;99.90;;;;;;5111150;28;19926;-67
2021/12/18 07:13:16;;;;;;;;;;;7.80;99.90;;;;;;5111221;28;19930;-67
2021/12/18 07:15:42;;;;;;;;;;;7.80;99.90;;;;;;5094837;28;19920;-67
2021/12/18 07:18:08;;;;;;;;;;;7.90;99.90;;;;;;5111368;28;19972;-67
2021/12/18 07:20:34;;;;;;;;;;;7.80;99.90;;;;;;5111844;28;19958;-67
2021/12/18 07:23:00;;;;;;;;;;;7.90;99.90;;;;;;5094727;28;19920;-70
2021/12/18 07:25:27;;;;;;;;;;;7.90;99.90;;;;;;5112042;28;19942;-68
2021/12/18 07:27:53;;;;;;;;;;;7.90;99.90;;;;;;5094943;28;20036;-67
2021/12/18 07:30:19;;;;;;;;;;;7.90;99.90;;;;;;5077178;28;20200;-67
2021/12/18 07:32:45;;;;;;;;;;;7.90;99.90;;;;;;5111974;28;19964;-67
2021/12/18 07:35:11;;;;;;;;;;;7.90;99.90;;;;;;5111309;28;19928;-66
2021/12/18 07:37:37;;;;;;;;;;;7.90;99.90;;;;;;5111622;28;20126;-66
2021/12/18 07:40:03;;;;;;;;;;;7.90;99.90;;;;;;5111263;28;20025;-69
2021/12/18 07:42:29;;;;;;;;;;;7.90;99.90;;;;;;5111459;28;19920;-67
2021/12/18 07:44:56;;;;;;;;;;;7.90;99.90;;;;;;5111317;28;19919;-67
2021/12/18 07:47:22;;;;;;;;;;;7.90;99.90;;;;;;5094512;28;19922;-66
2021/12/18 07:49:48;;;;;;;;;;;7.90;99.90;;;;;;5094283;28;19920;-66
2021/12/18 07:52:14;;;;;;;;;;;7.90;99.90;;;;;;5110649;28;19920;-67
2021/12/18 07:54:39;;;;;;;;;;;7.90;99.90;;;;;;5111334;28;19965;-67
2021/12/18 07:57:05;;;;;;;;;;;8.00;99.90;;;;;;5094180;28;20273;-67
2021/12/18 07:59:32;;;;;;;;;;;8.00;99.90;;;;;;5094226;28;20012;-66
2021/12/18 08:01:58;;;;;;;;;;;8.00;99.90;;;;;;5110877;28;19926;-67
2021/12/18 08:04:23;;;;;;;;;;;8.00;99.90;;;;;;5110769;28;20006;-65
2021/12/18 08:06:49;;;;;;;;;;;8.00;99.90;;;;;;5112294;28;19919;-67
2021/12/18 08:09:16;;;;;;;;;;;8.00;99.90;;;;;;5110490;28;19974;-67
2021/12/18 08:11:42;;;;;;;;;;;8.00;99.90;;;;;;5094493;28;19920;-66
2021/12/18 08:14:07;;;;;;;;;;;8.00;99.90;;;;;;5111286;28;19965;-68
2021/12/18 08:16:33;;;;;;;;;;;8.00;99.90;;;;;;5111375;28;19919;-65
2021/12/18 08:18:59;;;;;;;;;;;8.00;99.90;;;;;;5110997;28;20330;-66
2021/12/18 08:21:24;;;;;;;;;;;8.00;99.90;;;;;;5093612;28;20574;-66
2021/12/18 08:23:50;;;;;;;;;;;8.00;99.90;;;;;;5131803;27;19919;-66
2021/12/18 08:26:15;;;;;;;;;;;8.00;99.90;;;;;;5097885;28;19920;-66
2021/12/18 08:28:41;;;;;;;;;;;8.00;99.90;;;;;;5098025;28;20281;-66
2021/12/18 08:31:07;;;;;;;;;;;8.00;99.90;;;;;;5114685;28;19966;-68
2021/12/18 08:33:32;;;;;;;;;;;8.00;99.90;;;;;;5097827;28;20039;-66
2021/12/18 08:35:58;;;;;;;;;;;8.00;99.90;;;;;;5114327;28;20346;-66
2021/12/18 08:38:23;;;;;;;;;;;8.10;99.90;;;;;;5096789;28;19920;-64
2021/12/18 08:40:50;;;;;;;;;;;8.10;99.90;;;;;;5098001;28;19927;-67
2021/12/18 08:43:16;;;;;;;;;;;8.10;99.90;;;;;;5114186;28;19951;-68
2021/12/18 08:45:41;;;;;;;;;;;8.10;99.90;;;;;;5114780;28;19988;-66
2021/12/18 08:48:07;;;;;;;;;;;8.10;99.90;;;;;;5097916;28;19919;-67
2021/12/18 08:50:33;;;;;;;;;;;8.10;99.90;;;;;;5114758;28;19973;-67
2021/12/18 08:52:58;;;;;;;;;;;8.10;99.90;;;;;;5097878;28;20367;-67
2021/12/18 08:55:24;;;;;;;;;;;8.10;99.90;;;;;;5097575;28;19920;-67
2021/12/18 08:57:50;;;;;;;;;;;8.10;99.90;;;;;;5114694;28;20277;-66
2021/12/18 09:00:19;;;;;;;;;;;8.10;99.90;;;;;;5114028;28;19967;-66
2021/12/18 09:02:46;;;;;;;;;;;8.20;99.90;;;;;;5097863;28;19920;-67
2021/12/18 09:05:12;;;;;;;;;;;8.20;99.90;;;;;;5114275;28;19919;-66
2021/12/18 09:07:37;;;;;;;;;;;8.20;99.90;;;;;;5114006;28;19926;-68
2021/12/18 09:10:04;;;;;;;;;;;8.20;99.90;;;;;;5080391;28;19919;-66
2021/12/18 09:12:30;;;;;;;;;;;8.20;99.90;;;;;;5096860;28;19973;-69
2021/12/18 09:14:55;;;;;;;;;;;8.20;99.90;;;;;;5113816;28;19920;-68
2021/12/18 09:17:21;;;;;;;;;;;8.20;99.90;;;;;;5114061;28;20318;-69
2021/12/18 09:19:47;;;;;;;;;;;8.20;99.90;;;;;;5097342;28;19923;-67
2021/12/18 09:22:12;;;;;;;;;;;8.30;99.90;;;;;;5113812;28;19919;-71
2021/12/18 09:24:38;;;;;;;;;;;8.30;99.90;;;;;;5097082;28;19942;-67
2021/12/18 09:27:04;;;;;;;;;;;8.30;99.90;;;;;;5114102;28;20274;-69
2021/12/18 09:29:30;;;;;;;;;;;8.30;99.90;;;;;;5113277;28;20429;-68
2021/12/18 09:31:56;;;;;;;;;;;8.30;99.90;;;;;;5113685;28;19920;-69
2021/12/18 09:34:21;;;;;;;;;;;8.30;99.90;;;;;;5095557;28;19956;-69
2021/12/18 09:36:47;;;;;;;;;;;8.30;99.90;;;;;;5113380;28;20026;-67
2021/12/18 09:39:14;;;;;;;;;;;8.30;99.90;;;;;;5096995;28;19926;-69
2021/12/18 09:41:40;;;;;;;;;;;8.30;99.90;;;;;;5097110;28;19959;-68
2021/12/18 09:44:06;;;;;;;;;;;8.30;99.90;;;;;;5114025;28;20325;-68
2021/12/18 09:46:31;;;;;;;;;;;8.30;99.90;;;;;;5096415;28;20300;-68
2021/12/18 09:48:57;;;;;;;;;;;8.30;99.90;;;;;;5096877;28;19920;-69
2021/12/18 09:51:27;;;;;;;;;;;8.30;99.90;;;;;;5114592;28;19920;-66
2021/12/18 09:53:56;;;;;;;;;;;8.30;99.90;;;;;;5096285;28;19923;-67
2021/12/18 09:56:23;;;;;;;;;;;8.30;99.90;;;;;;5096433;28;19919;-67
2021/12/18 09:58:49;;;;;;;;;;;8.40;99.90;;;;;;5096617;28;19939;-68
2021/12/18 10:01:15;;;;;;;;;;;8.30;99.90;;;;;;5113426;28;19920;-68
2021/12/18 10:03:50;;;;;;;;;;;8.30;99.90;;;;;;5112642;28;19959;-69
2021/12/18 10:06:34;;;;;;;;;;;8.40;99.90;;;;;;5113103;28;20013;-68
2021/12/18 10:09:01;;;;;;;;;;;8.40;99.90;;;;;;5113079;28;19942;-68
2021/12/18 10:11:26;;;;;;;;;;;8.40;99.90;;;;;;5078947;28;19930;-69
2021/12/18 10:13:53;;;;;;;;;;;8.40;99.90;;;;;;5112879;28;19920;-68
2021/12/18 10:16:20;;;;;;;;;;;8.40;99.90;;;;;;5112337;28;19926;-67
2021/12/18 10:18:45;;;;;;;;;;;8.40;99.90;;;;;;5079428;28;19919;-69
2021/12/18 10:21:15;;;;;;;;;;;8.40;99.90;;;;;;5113181;28;19927;-68
2021/12/18 10:23:42;;;;;;;;;;;8.50;99.90;;;;;;5112271;28;19927;-69
2021/12/18 10:26:08;;;;;;;;;;;8.40;99.90;;;;;;5114078;28;19920;-69
2021/12/18 10:28:44;;;;;;;;;;;8.50;99.90;;;;;;5095605;28;20022;-67
2021/12/18 10:31:10;;;;;;;;;;;8.50;99.90;;;;;;5112941;28;19965;-68
2021/12/18 10:33:35;;;;;;;;;;;8.50;99.90;;;;;;5111067;28;19919;-69
2021/12/18 10:36:02;;;;;;;;;;;8.50;99.90;;;;;;5095185;28;19942;-69
2021/12/18 10:38:34;;;;;;;;;;;8.50;99.90;;;;;;5112462;28;20026;-71
2021/12/18 10:40:59;;;;;;;;;;;8.50;99.90;;;;;;5095672;28;19927;-69
2021/12/18 10:43:25;;;;;;;;;;;8.50;99.90;;;;;;5128964;27;19920;-71
2021/12/18 10:45:51;;;;;;;;;;;8.50;99.90;;;;;;5112273;28;20024;-69
2021/12/18 10:48:19;;;;;;;;;;;8.60;99.90;;;;;;5112323;28;20019;-70
2021/12/18 10:50:48;;;;;;;;;;;8.60;99.90;;;;;;5095125;28;20051;-70
2021/12/18 10:53:24;;;;;;;;;;;8.60;99.90;;;;;;5112618;28;20365;-69
2021/12/18 10:56:03;;;;;;;;;;;8.60;99.90;;;;;;5113597;28;19972;-69
2021/12/18 10:58:33;;;;;;;;;;;8.50;99.90;;;;;;5112312;28;19919;-70
2021/12/18 11:01:00;;;;;;;;;;;8.60;99.90;;;;;;5095463;28;20292;-69
2021/12/18 11:03:27;;;;;;;;;;;8.60;99.90;;;;;;5112111;28;19920;-68
2021/12/18 11:06:02;;;;;;;;;;;8.60;99.90;;;;;;5112463;28;19923;-70
2021/12/18 11:08:28;;;;;;;;;;;8.70;99.90;;;;;;5111938;28;19925;-69
2021/12/18 11:13:38;;;;;;;;;;;8.70;99.90;;;;;;5095142;28;20271;-68
2021/12/18 11:13:48;;;;;;;;;;;8.70;99.90;;;;;;5111619;28;19920;-70
2021/12/18 11:16:15;;;;;;;;;;;8.70;99.90;;;;;;5094941;28;19970;-69
2021/12/18 11:18:41;;;;;;;;;;;8.70;99.90;;;;;;5111688;28;19920;-68
2021/12/18 11:21:06;;;;;;;;;;;8.70;99.90;;;;;;5111760;28;19924;-70
2021/12/18 11:23:37;;;;;;;;;;;8.70;99.90;;;;;;5112447;28;19927;-69
2021/12/18 11:26:03;;;;;;;;;;;8.70;99.90;;;;;;5112316;28;20060;-69
2021/12/18 11:28:30;;;;;;;;;;;8.70;99.90;;;;;;5111527;28;20022;-69
2021/12/18 11:30:55;;;;;;;;;;;8.70;99.90;;;;;;5095136;28;20326;-69
2021/12/18 11:33:21;;;;;;;;;;;8.70;99.90;;;;;;5094720;28;19920;-69
2021/12/18 11:35:47;;;;;;;;;;;8.80;99.90;;;;;;5111792;28;19930;-69
2021/12/18 11:38:15;;;;;;;;;;;8.80;99.90;;;;;;5112825;28;19926;-69
2021/12/18 11:40:41;;;;;;;;;;;8.80;99.90;;;;;;5111600;28;19919;-69
2021/12/18 11:43:07;;;;;;;;;;;8.80;99.90;;;;;;5111775;28;19923;-69
2021/12/18 11:45:34;;;;;;;;;;;8.80;99.90;;;;;;5112455;28;20335;-69
2021/12/18 11:48:00;;;;;;;;;;;8.80;99.90;;;;;;5111828;28;19919;-70
2021/12/18 11:50:26;;;;;;;;;;;8.80;99.90;;;;;;5111369;28;19971;-69
2021/12/18 11:52:54;;;;;;;;;;;8.90;99.90;;;;;;5094401;28;19976;-70
2021/12/18 11:55:20;;;;;;;;;;;8.90;99.90;;;;;;5111680;28;19923;-69
2021/12/18 11:57:50;;;;;;;;;;;8.90;99.90;;;;;;5115891;28;19985;-69
2021/12/18 12:00:18;;;;;;;;;;;8.90;99.90;;;;;;5118476;28;19926;-70
2021/12/18 12:02:48;;;;;;;;;;;8.90;99.90;;;;;;5118178;28;19927;-70
2021/12/18 12:05:31;;;;;;;;;;;8.90;99.90;;;;;;5118459;28;19920;-69
2021/12/18 12:08:15;;;;;;;;;;;8.90;99.90;;;;;;5117731;28;19924;-69
2021/12/18 12:11:02;;;;;;;;;;;8.90;99.90;;;;;;5117519;28;19920;-69
2021/12/18 12:13:46;;;;;;;;;;;8.90;99.90;;;;;;5117381;28;19919;-70
2021/12/18 12:16:12;;;;;;;;;;;8.90;99.90;;;;;;5117314;28;20304;-70
2021/12/18 12:19:18;;;;;;;;;;;8.90;99.90;;;;;;5118496;28;19919;-69
2021/12/18 12:21:47;;;;;;;;;;;8.90;99.90;;;;;;5035349;28;19960;-69
2021/12/18 12:24:13;;;;;;;;;;;8.90;99.90;;;;;;5019230;28;19921;-68
2021/12/18 12:26:39;;;;;;;;;;;8.90;99.90;;;;;;5066492;28;19920;-69
2021/12/18 12:29:05;;;;;;;;;;;8.90;99.90;;;;;;5117575;28;20426;-69
2021/12/18 12:31:32;;;;;;;;;;;9.00;99.90;;;;;;5117673;28;20361;-69
2021/12/18 12:34:16;;;;;;;;;;;8.90;99.90;;;;;;5117612;28;20280;-71
2021/12/18 12:36:45;;;;;;;;;;;8.90;99.90;;;;;;5100906;28;20280;-68
2021/12/18 12:39:12;;;;;;;;;;;8.90;99.90;;;;;;5117895;28;19985;-67
2021/12/18 12:41:40;;;;;;;;;;;8.90;99.90;;;;;;5117761;28;19920;-68
2021/12/18 12:44:17;;;;;;;;;;;9.00;99.90;;;;;;5118153;28;20400;-67
2021/12/18 12:46:43;;;;;;;;;;;8.90;99.90;;;;;;5117642;28;19946;-67
2021/12/18 12:49:11;;;;;;;;;;;9.00;99.90;;;;;;5119010;27;19919;-69
2021/12/18 12:51:55;;;;;;;;;;;9.00;99.90;;;;;;5117661;28;20284;-70
2021/12/18 12:55:00;;;;;;;15.80;4.40;;;8.90;99.90;;;;;;5100651;28;19974;-69
2021/12/18 12:57:27;;;;;;;12.30;3.08;;;8.90;99.90;;;;;;5117197;28;20079;-71
2021/12/18 12:59:59;;;;;;;15.48;3.80;;;8.90;99.90;;;;;;5117031;28;20051;-70
2021/12/18 13:02:25;;;;;;;9.70;3.20;;;8.90;99.90;;;;;;5134766;27;20122;-69
2021/12/18 13:05:02;;;;;;;;;;;8.90;99.90;;;;;;5100487;28;19926;-69
2021/12/18 13:07:27;;;;;;;;;;;8.90;99.90;;;;;;5118632;27;19926;-69
2021/12/18 13:09:53;;;;;;;;;;;8.80;99.90;;;;;;5113886;28;19920;-70
2021/12/18 13:12:19;;;;;;;;;;;8.80;99.90;;;;;;5114263;28;19984;-70
2021/12/18 13:14:45;;;;;;;;;;;8.80;99.90;;;;;;5096934;28;19919;-70
2021/12/18 13:17:24;;;;;;;;;;;8.80;99.90;;;;;;5097287;28;19919;-71
2021/12/18 13:19:57;;;;;;;;;;;8.80;99.90;;;;;;5114148;28;20280;-70
2021/12/18 13:22:28;;;;;;;;;;;8.80;99.90;;;;;;5115388;28;20010;-69
2021/12/18 13:25:04;;;;;;;;;;;8.80;99.90;;;;;;5113822;28;20288;-70
2021/12/18 13:27:30;;;;;;;;;;;8.80;99.90;;;;;;5114244;28;20002;-70
2021/12/18 13:30:11;;;;;;;;;;;8.80;99.90;;;;;;5113551;28;20014;-70
2021/12/18 13:32:36;;;;;;;;;;;8.80;99.90;;;;;;5113779;28;20305;-70
2021/12/18 13:35:11;;;;;;;;;;;8.70;99.90;;;;;;5113750;28;19920;-70
2021/12/18 13:37:37;;;;;;;;;;;8.80;99.90;;;;;;5096870;28;19928;-69
2021/12/18 13:40:12;;;;;;;;;;;8.80;99.90;;;;;;5096671;28;19968;-70
2021/12/18 13:42:38;;;;;;;;;;;8.70;99.90;;;;;;5115118;28;19927;-70
2021/12/18 13:45:05;;;;;;;;;;;8.70;99.90;;;;;;5113734;28;19920;-71
2021/12/18 13:47:33;;;;;;;;;;;8.70;99.90;;;;;;5096908;28;19920;-70
2021/12/18 13:50:11;;;;;;;;;;;8.70;99.90;;;;;;5113175;28;19963;-70
2021/12/18 13:52:38;;;;;;;;;;;8.70;99.90;;;;;;5096900;28;19928;-69
2021/12/18 13:55:19;;;;;;;;;;;8.70;99.90;;;;;;5113624;28;20374;-70
2021/12/18 13:58:02;;;;;;;;;;;8.60;99.90;;;;;;5113082;28;20314;-70
2021/12/18 14:00:28;;;;;;;;;;;8.70;99.90;;;;;;5096441;28;19927;-71
2021/12/18 14:02:54;;;;;;;;;;;8.60;99.90;;;;;;5096125;28;19920;-70
2021/12/18 14:05:19;;;;;;;;;;;8.60;99.90;;;;;;5113292;28;20064;-70
2021/12/18 14:07:45;;;;;;;;;;;8.60;99.90;;;;;;5113351;28;19969;-70
2021/12/18 14:10:11;;;;;;;;;;;8.60;99.90;;;;;;5112878;28;19920;-69
2021/12/18 14:12:37;;;;;;;;;;;8.60;99.90;;;;;;5096399;28;19930;-70
2021/12/18 14:15:02;;;;;;;;;;;8.60;99.90;;;;;;5095439;28;19924;-70
2021/12/18 14:17:30;;;;;;;;;;;8.60;99.90;;;;;;5113101;28;19927;-69
2021/12/18 14:20:07;;;;;;;;;;;8.70;99.90;;;;;;5112431;28;20281;-69
2021/12/18 14:22:34;;;;;;;;;;;8.70;99.90;;;;;;5114080;28;19923;-69
2021/12/18 14:25:00;;;;;;;;;;;8.60;99.90;;;;;;5112713;28;20053;-71
2021/12/18 14:27:36;;;;;;;;;;;8.70;99.90;;;;;;5113284;28;20347;-69
2021/12/18 14:30:02;;;;;;;;;;;8.70;99.90;;;;;;5112587;28;19923;-69
2021/12/18 14:32:28;;;;;;;;;;;8.70;99.90;;;;;;5095871;28;19927;-70
2021/12/18 14:35:01;;;;;;;;;;;8.70;99.90;;;;;;5112531;28;20226;-69
2021/12/18 14:37:27;;;;;;;;;;;8.60;99.90;;;;;;5095756;28;19985;-70
2021/12/18 14:39:54;;;;;;;;;;;8.60;99.90;;;;;;5112564;28;19928;-71
2021/12/18 14:45:00;;;;;;;;;;;8.60;99.90;;;;;;5113386;28;19926;-70
2021/12/18 14:47:32;;;;;;;;;;;8.60;99.90;;;;;;5112769;28;19919;-70
2021/12/18 14:50:06;;;;;;;;;;;8.60;99.90;;;;;;5112127;28;20018;-70
2021/12/18 14:52:46;;;;;;;;;;;8.60;99.90;;;;;;5095602;28;20251;-70
2021/12/18 14:55:12;;;;;;;;;;;8.60;99.90;;;;;;5112251;28;19920;-69
2021/12/18 14:57:50;;;;;;;;;;;8.60;99.90;;;;;;5112503;28;19920;-70
2021/12/18 15:00:19;;;;;;;;;;;8.60;99.90;;;;;;5112716;28;19919;-69
2021/12/18 15:03:03;;;;;;;;;;;8.60;99.90;;;;;;5095441;28;19927;-69